Date,TemperatureHighF,TemperatureAvgF,TemperatureLowF,DewpointHighF,DewpointAvgF,DewpointLowF,HumidityHigh,HumidityAvg,HumidityLow,PressureMaxIn,PressureMinIn,WindSpeedMaxMPH,WindSpeedAvgMPH,GustSpeedMaxMPH,PrecipitationSumIn
2013-1-1,78.7,72.3,65.1,64.1,61.5,58.4,89,69,56,30.21,30.07,18,3,18,0.00
2013-1-2,83.2,73.4,61.0,68.2,65.2,59.3,96,77,52,30.11,30.01,7,2,9,0.00
2013-1-3,83.0,73.4,66.8,69.7,66.6,64.8,95,81,56,30.15,30.04,13,2,13,0.00
2013-1-4,83.7,72.9,64.4,73.0,68.1,62.7,97,86,66,30.23,30.11,9,1,9,0.00
2013-1-5,80.9,72.2,67.4,71.8,68.1,65.6,95,87,71,30.26,30.16,8,2,14,0.00
2013-1-6,81.9,73.5,66.3,72.8,69.3,65.1,97,87,70,30.21,30.07,15,2,15,0.04
2013-1-7,79.5,71.5,65.6,70.6,67.5,64.5,98,88,69,30.18,30.08,13,1,13,0.00
2013-1-8,82.7,74.8,68.1,73.4,70.7,66.9,98,87,72,30.21,30.08,15,2,15,0.12
2013-1-9,82.9,77.2,73.9,73.1,71.2,69.2,89,82,69,30.29,30.17,22,4,22,0.01
2013-1-10,81.1,76.2,72.3,69.5,67.2,64.8,84,74,61,30.31,30.19,19,4,19,0.00
2013-1-11,81.7,75.8,71.9,70.3,67.8,65.9,88,77,63,30.27,30.16,16,4,16,0.01
2013-1-12,81.8,74.8,68.9,69.7,67.2,64.7,93,78,61,30.20,30.10,14,2,17,0.00
2013-1-13,81.4,74.4,70.3,68.5,65.4,61.6,86,74,58,30.14,30.08,17,3,17,0.00
2013-1-14,80.7,72.7,65.1,65.5,63.8,60.9,88,74,58,30.19,30.12,17,2,17,0.00
2013-1-15,81.8,71.2,63.2,69.2,64.9,61.3,95,81,63,30.15,30.06,14,2,14,0.00
2013-1-16,80.3,71.0,61.6,70.2,65.9,60.2,96,85,69,30.12,30.02,14,2,14,0.00
2013-1-17,81.7,70.4,60.7,72.3,66.1,54.7,98,87,69,30.12,29.99,25,3,25,0.17
2013-1-18,70.0,62.7,54.4,62.1,54.0,48.0,83,74,61,30.26,30.12,16,4,16,0.00
2013-1-19,73.3,68.1,62.3,67.8,64.1,58.9,95,87,69,30.23,30.11,10,2,10,0.06
2013-1-20,82.5,71.0,64.4,69.3,65.8,62.7,98,85,54,30.17,30.03,8,1,8,0.01
2013-1-21,80.7,72.2,65.4,71.2,67.0,64.2,97,84,67,30.09,29.98,15,2,15,0.00
2013-1-22,77.8,68.7,62.6,64.4,60.2,56.0,94,76,54,30.23,30.03,15,3,15,0.00
2013-1-23,76.0,67.9,59.6,58.7,55.0,52.6,86,64,48,30.31,30.20,19,4,19,0.00
2013-1-24,77.8,65.1,55.8,59.3,54.8,51.9,92,71,48,30.31,30.20,12,2,12,0.00
2013-1-25,78.2,65.5,54.2,57.9,55.0,50.2,89,71,40,30.30,30.19,13,1,13,0.00
2013-1-26,81.6,67.0,55.1,62.5,58.5,53.4,96,76,47,30.27,30.17,13,2,13,0.00
2013-1-27,80.3,70.2,60.4,65.6,62.3,58.7,95,77,55,30.29,30.21,20,3,20,0.00
2013-1-28,80.8,74.9,70.3,67.0,64.8,62.4,81,71,55,30.33,30.24,16,4,16,0.00
2013-1-29,80.8,74.5,69.7,70.3,67.1,63.7,91,78,66,30.25,30.14,17,3,17,0.00
2013-1-30,80.8,74.3,69.4,68.2,66.1,63.9,92,76,61,30.14,29.99,23,4,23,0.00
2013-1-31,74.7,68.5,60.4,71.8,61.7,43.2,96,80,52,30.19,29.98,20,3,20,0.00
2013-2-1,75.5,63.6,52.0,56.0,49.6,41.3,77,61,46,30.28,30.17,21,4,21,0.00
2013-2-2,75.0,64.0,55.5,55.9,50.9,38.3,87,64,44,30.28,30.13,14,2,14,0.00
2013-2-3,77.0,63.9,52.6,56.0,50.1,37.1,93,64,29,30.19,30.08,13,2,13,0.00
2013-2-4,75.7,61.6,48.0,55.3,48.9,40.8,92,66,34,30.17,30.04,13,1,13,0.00
2013-2-5,79.8,66.3,52.9,63.8,58.2,50.8,96,77,52,30.10,30.01,13,2,13,0.00
2013-2-6,81.6,70.5,59.9,66.6,62.8,58.6,97,78,54,30.12,30.04,13,2,13,0.00
2013-2-7,82.0,72.7,62.6,65.9,63.6,60.1,93,75,54,30.10,29.97,15,2,15,0.00
2013-2-8,86.8,73.7,67.6,72.4,67.9,59.7,96,83,58,30.05,29.94,16,3,16,0.34
2013-2-9,80.5,71.1,62.9,68.6,63.4,58.7,97,78,62,30.18,30.03,17,4,17,0.00
2013-2-10,78.7,72.4,68.1,65.7,62.3,60.1,78,71,57,30.26,30.16,23,4,23,0.01
2013-2-11,79.8,72.9,66.7,66.9,64.4,61.5,87,75,62,30.23,30.13,16,3,16,0.00
2013-2-12,84.8,72.8,62.0,69.8,66.0,60.6,97,81,55,30.14,29.99,18,3,18,0.00
2013-2-13,85.5,75.5,66.9,72.7,69.9,65.6,97,84,64,30.03,29.92,19,4,19,0.01
2013-2-14,87.3,74.9,63.3,73.6,68.6,61.5,96,82,56,30.04,29.88,23,4,23,0.61
2013-2-15,73.2,66.9,63.1,68.7,65.1,61.5,97,94,83,30.04,29.96,12,2,12,0.89
2013-2-16,77.5,66.5,55.0,64.8,57.2,46.2,97,75,38,30.11,29.90,22,5,22,0.02
2013-2-17,60.4,52.9,46.0,46.5,31.6,22.1,73,47,26,30.33,30.10,22,5,22,0.00
2013-2-18,71.0,60.2,47.0,56.6,46.9,37.5,72,62,47,30.33,30.21,17,4,17,0.00
2013-2-19,79.0,69.8,57.9,66.2,61.7,54.4,94,76,63,30.22,30.10,17,3,17,0.00
2013-2-20,80.0,72.3,65.3,67.7,65.3,60.3,96,80,53,30.13,30.03,12,2,12,0.00
2013-2-21,82.3,73.0,64.4,68.3,65.9,62.6,95,79,57,30.11,30.01,17,2,17,0.00
2013-2-22,82.5,76.0,71.2,71.9,69.8,67.1,90,82,63,30.12,30.03,16,4,16,0.00
2013-2-23,85.4,77.2,72.3,72.5,70.7,67.9,94,81,62,30.06,29.94,13,5,18,0.00
2013-2-24,90.5,77.4,70.5,74.3,70.7,63.5,97,82,43,30.02,29.92,17,2,17,0.00
2013-2-25,85.6,76.4,68.1,73.6,69.6,66.3,97,81,59,29.93,29.83,20,3,20,0.00
2013-2-26,85.2,79.1,75.3,74.6,71.7,69.6,89,79,62,29.92,29.81,22,6,22,0.02
2013-2-27,79.2,71.7,66.4,72.9,67.7,64.2,95,88,67,29.99,29.88,12,2,12,0.16
2013-2-28,74.5,66.1,60.9,64.8,56.1,49.3,94,71,49,30.03,29.93,16,3,16,0.00
2013-3-1,66.5,63.2,59.1,57.3,53.1,47.5,84,70,60,30.01,29.92,14,3,14,0.01
2013-3-2,69.3,58.8,49.9,49.2,43.7,40.2,79,58,39,30.06,29.97,26,5,26,0.01
2013-3-3,66.0,56.9,49.2,48.3,44.4,41.8,84,64,45,30.16,29.99,18,4,18,0.00
2013-3-4,70.4,55.6,44.1,45.1,40.1,32.3,81,59,27,30.23,30.13,16,3,16,0.00
2013-3-5,76.5,63.1,47.6,57.1,52.2,42.7,93,69,46,30.20,30.10,10,2,15,0.00
2013-3-6,79.9,65.9,53.8,65.0,53.1,35.9,95,67,28,30.12,29.98,20,5,20,0.00
2013-3-7,74.0,59.5,46.7,52.6,43.0,37.5,86,57,30,30.20,30.09,19,3,19,0.00
2013-3-8,76.6,64.4,52.8,54.3,50.7,43.5,92,65,31,30.22,30.11,13,2,13,0.00
2013-3-9,77.3,65.6,53.9,59.4,54.1,49.2,89,68,51,30.20,30.12,17,4,17,0.00
2013-3-10,77.7,70.1,63.3,61.9,56.4,52.4,75,62,51,30.17,30.07,19,4,19,0.00
2013-3-11,77.3,71.7,66.2,63.3,60.9,58.2,85,69,58,30.12,29.97,16,4,16,0.00
2013-3-12,82.5,73.8,66.2,70.1,65.6,61.4,87,76,63,30.03,29.93,19,4,19,0.00
2013-3-13,79.5,68.0,57.4,66.2,54.9,43.4,90,66,34,30.14,30.00,15,4,15,0.00
2013-3-14,76.2,63.5,54.1,53.1,45.8,32.4,83,56,23,30.22,30.11,18,4,19,0.00
2013-3-15,74.6,63.3,53.4,52.0,49.1,42.8,86,62,34,30.27,30.16,16,2,16,0.00
2013-3-16,76.7,64.6,51.8,56.4,52.9,49.2,94,68,47,30.21,30.10,15,2,15,0.00
2013-3-17,78.0,66.8,54.7,61.3,57.2,52.6,94,73,51,30.17,30.04,16,2,16,0.00
2013-3-18,80.8,71.4,61.7,70.6,65.5,58.8,94,82,67,30.10,29.98,18,3,18,0.06
2013-3-19,80.3,73.1,66.5,70.3,67.6,64.4,96,84,62,30.03,29.86,20,2,20,0.08
2013-3-20,88.5,72.2,63.1,69.8,65.0,60.7,97,80,44,30.00,29.81,20,2,21,0.39
2013-3-21,79.2,68.8,61.1,61.8,55.9,46.7,92,67,36,29.97,29.86,14,3,14,0.00
2013-3-22,76.4,68.2,57.3,69.6,61.5,53.0,93,80,61,30.02,29.92,16,2,16,0.01
2013-3-23,88.4,78.5,71.3,74.4,71.2,66.0,96,80,49,30.00,29.83,21,4,21,0.00
2013-3-24,90.8,80.7,74.5,74.0,72.2,69.4,95,77,51,29.91,29.72,32,7,32,0.01
2013-3-25,83.0,75.8,65.4,73.0,61.9,35.7,91,65,34,30.02,29.76,15,4,15,0.00
2013-3-26,71.2,62.9,52.8,46.4,39.5,32.5,65,43,27,30.23,30.01,19,7,20,0.00
2013-3-27,72.5,58.5,46.0,47.4,40.8,35.1,77,54,36,30.27,30.18,17,4,17,0.00
2013-3-28,76.8,62.4,50.5,49.7,45.5,37.0,83,57,26,30.28,30.17,23,2,23,0.00
2013-3-29,77.2,65.3,53.5,54.7,49.6,41.4,74,58,41,30.30,30.22,16,3,16,0.00
2013-3-30,77.5,66.7,54.8,56.0,52.9,48.0,90,64,38,30.27,30.17,14,2,14,0.00
2013-3-31,81.8,71.7,58.8,66.4,61.5,54.4,89,71,52,30.21,30.06,15,4,22,0.00
2013-4-1,90.2,74.8,69.2,71.3,67.4,63.4,92,79,43,30.08,29.98,19,4,19,0.06
2013-4-2,87.3,74.1,63.5,69.0,65.0,61.8,97,75,43,30.10,30.01,12,2,14,0.01
2013-4-3,84.8,75.5,67.3,69.9,67.8,64.7,94,78,59,30.09,30.00,17,3,17,0.00
2013-4-4,86.3,76.2,68.7,73.3,69.9,65.9,94,81,62,30.06,29.94,23,4,23,0.10
2013-4-5,73.1,68.5,65.0,71.2,66.0,63.4,96,92,81,30.01,29.83,22,2,22,0.95
2013-4-6,81.0,69.5,59.5,66.5,61.2,57.2,94,76,55,30.11,29.94,18,5,18,0.00
2013-4-7,78.0,72.4,67.8,68.3,64.1,61.8,90,75,62,30.15,30.03,15,3,15,0.21
2013-4-8,82.1,72.2,60.8,64.9,61.3,57.9,95,71,48,30.14,30.06,15,2,16,0.00
2013-4-9,82.7,74.5,66.4,69.1,65.9,62.3,92,75,58,30.16,30.06,16,3,17,0.00
2013-4-10,85.0,77.5,71.1,72.8,70.2,65.4,88,79,63,30.11,30.01,17,4,17,0.00
2013-4-11,84.1,78.8,75.5,73.2,71.5,70.1,85,79,68,30.03,29.91,20,6,20,0.00
2013-4-12,89.0,81.1,76.4,76.3,74.0,72.3,91,80,64,29.98,29.88,20,5,20,0.05
2013-4-13,85.0,78.7,73.8,75.7,73.0,70.8,93,83,68,30.00,29.90,16,3,16,0.79
2013-4-14,87.0,79.8,73.0,75.3,73.3,70.9,96,82,61,29.99,29.90,18,4,20,0.00
2013-4-15,88.7,78.9,73.1,78.2,73.8,69.0,95,85,62,30.07,29.94,14,2,16,0.28
2013-4-16,87.0,78.5,71.3,76.3,72.5,68.8,97,83,62,30.13,30.03,16,3,16,0.07
2013-4-17,84.9,79.6,73.0,73.7,71.4,69.3,94,77,64,30.12,30.03,14,5,17,0.00
2013-4-18,86.8,79.8,74.1,74.7,70.9,68.7,86,75,58,30.08,29.99,15,3,17,0.00
2013-4-19,87.5,81.3,76.9,74.1,71.9,68.3,84,74,55,30.06,29.98,21,6,21,0.00
2013-4-20,92.0,79.0,70.3,76.8,72.8,66.6,95,83,45,30.10,29.94,28,3,28,1.86
2013-4-21,85.7,77.4,72.2,74.9,72.1,69.5,96,84,60,30.10,30.00,17,3,17,0.01
2013-4-22,82.5,74.9,69.6,73.2,70.3,67.6,95,86,67,30.07,29.93,13,2,13,0.46
2013-4-23,84.0,75.3,67.5,71.0,66.7,61.9,96,76,57,30.10,29.96,22,5,22,0.01
2013-4-24,83.8,76.8,70.7,69.2,64.8,61.0,76,67,56,30.15,30.05,16,4,16,0.00
2013-4-25,83.6,75.4,65.3,65.3,62.2,58.1,86,64,43,30.20,30.09,18,3,18,0.00
2013-4-26,82.9,75.1,63.8,66.6,63.6,59.5,88,68,52,30.23,30.13,23,4,23,0.00
2013-4-27,82.8,76.6,71.1,68.4,64.4,60.8,79,66,54,30.22,30.09,19,5,19,0.00
2013-4-28,83.4,77.2,73.1,68.2,65.1,61.8,79,67,53,30.12,30.00,19,4,19,0.00
2013-4-29,83.5,76.5,73.5,72.8,68.9,64.4,91,78,64,30.05,29.95,26,3,26,0.13
2013-4-30,82.5,74.4,70.2,73.5,70.2,67.2,95,87,71,30.04,29.94,13,2,19,0.58
2013-5-1,85.4,74.5,68.4,75.0,70.5,67.2,97,88,66,30.01,29.93,14,2,14,0.70
2013-5-2,81.3,73.1,67.9,73.3,70.0,66.4,96,90,70,29.98,29.80,29,3,29,1.99
2013-5-3,89.3,76.1,67.7,71.9,68.6,65.2,96,80,48,29.83,29.70,20,3,20,0.21
2013-5-4,89.5,78.0,68.8,71.3,68.0,64.9,95,74,48,29.83,29.71,21,4,21,0.00
2013-5-5,84.3,75.1,67.1,67.3,63.8,56.4,92,70,49,29.95,29.79,16,4,16,0.00
2013-5-6,87.2,73.9,58.3,66.7,59.8,55.1,92,64,37,30.04,29.93,14,3,14,0.00
2013-5-7,87.0,75.6,64.6,67.1,61.8,56.0,87,65,36,30.09,29.99,17,4,17,0.00
2013-5-8,88.8,75.6,61.7,67.5,61.9,57.6,93,65,39,30.16,30.06,13,2,13,0.00
2013-5-9,87.5,76.8,65.1,75.1,67.4,59.8,91,74,54,30.15,30.07,15,2,15,0.32
2013-5-10,88.2,79.5,69.9,74.6,72.0,67.3,94,79,59,30.14,30.03,17,3,17,0.10
2013-5-11,88.5,78.9,72.4,77.1,72.7,70.5,96,82,62,30.09,30.00,16,3,16,0.09
2013-5-12,90.3,78.7,71.5,74.4,71.7,69.6,96,80,58,30.08,29.97,14,2,14,0.01
2013-5-13,92.3,79.7,69.7,74.6,70.7,66.2,97,76,45,30.10,30.01,16,2,16,0.00
2013-5-14,82.8,77.5,72.7,69.9,62.7,56.3,78,61,48,30.18,30.07,20,4,20,0.00
2013-5-15,82.5,75.2,66.3,65.0,61.5,58.2,84,63,48,30.20,30.10,19,4,20,0.00
2013-5-16,84.0,76.1,66.0,66.0,62.5,57.8,83,63,50,30.13,30.05,16,3,16,0.00
2013-5-17,90.0,78.9,69.7,72.9,68.8,63.0,92,72,45,30.10,30.02,12,2,12,0.00
2013-5-18,87.0,79.4,73.0,76.3,71.7,68.8,93,78,64,30.11,30.04,16,3,16,0.07
2013-5-19,87.8,79.5,70.9,72.3,69.7,65.7,92,73,50,30.11,30.00,16,3,16,0.00
2013-5-20,82.6,76.9,69.3,75.5,72.2,66.2,95,86,73,30.08,29.98,23,2,23,2.11
2013-5-21,84.2,75.9,70.1,75.2,71.2,68.6,97,86,70,30.06,29.94,16,2,16,0.21
2013-5-22,87.3,78.2,72.4,78.1,72.5,68.9,96,83,64,29.98,29.90,12,2,12,1.01
2013-5-23,93.8,80.9,71.5,77.3,72.6,65.5,96,78,40,30.02,29.93,16,2,16,0.01
2013-5-24,94.2,82.3,74.4,76.7,72.8,61.7,91,74,46,30.07,29.96,13,2,13,0.00
2013-5-25,87.0,80.7,74.3,73.8,69.5,65.3,92,70,52,30.17,30.05,21,5,21,0.00
2013-5-26,85.8,79.4,72.5,70.1,66.9,63.3,85,66,49,30.18,30.11,21,5,21,0.01
2013-5-27,85.7,79.8,76.0,73.7,71.0,66.6,85,75,67,30.16,30.06,19,6,20,0.00
2013-5-28,84.7,78.4,73.4,74.5,72.1,69.4,94,81,69,30.12,30.04,18,4,18,0.41
2013-5-29,80.3,76.0,72.6,74.2,71.8,69.0,95,87,78,30.10,30.03,33,4,33,1.35
2013-5-30,84.5,78.4,76.1,75.6,72.4,69.3,91,82,73,30.08,30.00,25,6,25,0.32
2013-5-31,86.3,80.1,75.4,75.6,73.7,72.2,91,81,68,30.06,30.00,17,4,17,0.07
2013-6-1,87.0,77.9,73.3,76.8,74.0,71.1,96,88,71,30.04,29.97,13,2,13,1.57
2013-6-2,89.8,78.6,73.1,77.6,74.2,71.9,97,87,61,30.02,29.94,17,1,17,0.49
2013-6-3,87.3,79.1,72.8,75.9,73.5,71.6,97,84,62,30.05,29.93,13,2,13,0.02
2013-6-4,84.0,78.5,73.6,78.0,74.3,71.2,96,87,71,30.06,29.97,10,1,10,0.41
2013-6-5,84.1,80.5,77.4,77.3,75.9,74.1,94,86,78,30.04,29.90,12,2,12,0.17
2013-6-6,88.3,80.1,74.9,79.4,75.9,71.8,95,87,71,29.93,29.82,27,5,27,0.73
2013-6-7,90.7,77.8,73.9,80.6,74.6,72.3,96,90,65,30.03,29.86,19,3,19,2.98
2013-6-8,89.8,81.3,73.8,79.1,75.5,72.3,97,84,62,30.11,29.98,16,3,16,0.00
2013-6-9,87.2,82.0,79.2,77.3,75.1,72.1,87,80,67,30.12,30.04,16,3,16,0.01
2013-6-10,89.0,83.3,79.3,78.0,76.0,74.4,88,79,67,30.10,30.02,17,3,17,0.00
2013-6-11,87.7,82.3,77.6,79.1,76.1,73.2,92,82,67,30.10,30.02,13,2,13,0.02
2013-6-12,89.5,79.0,74.8,78.0,75.1,72.3,95,88,63,30.11,30.03,14,1,14,0.28
2013-6-13,90.8,79.7,73.7,77.1,74.2,68.5,97,84,60,30.08,29.96,12,1,12,0.61
2013-6-14,94.3,81.8,72.7,77.9,73.5,70.9,96,78,51,30.00,29.89,18,2,18,0.09
2013-6-15,94.0,83.1,75.2,76.6,74.2,71.1,95,76,53,30.07,29.95,11,2,11,0.01
2013-6-16,90.7,83.0,75.5,77.9,75.1,72.8,94,78,62,30.10,30.02,13,2,13,0.00
2013-6-17,91.0,84.2,76.4,76.9,75.1,72.8,91,75,57,30.09,30.02,14,2,14,0.00
2013-6-18,91.3,84.2,77.9,77.3,75.6,74.2,92,76,61,30.08,30.00,14,3,14,0.00
2013-6-19,92.2,84.2,78.6,77.3,75.6,74.0,90,76,58,30.06,30.00,13,3,13,0.00
2013-6-20,91.9,83.1,75.8,76.9,73.6,69.0,85,74,57,30.11,30.03,15,2,15,0.00
2013-6-21,91.8,84.5,77.3,75.4,73.4,69.3,87,70,50,30.13,30.04,14,3,14,0.00
2013-6-22,91.0,83.4,76.4,77.8,74.1,71.6,88,74,58,30.11,30.05,15,3,15,0.12
2013-6-23,90.3,83.7,77.6,76.4,74.1,71.6,90,73,58,30.14,30.06,18,3,22,0.21
2013-6-24,89.9,82.7,76.1,77.4,74.2,72.1,90,76,60,30.18,30.08,18,3,21,0.13
2013-6-25,90.5,83.3,78.2,78.0,75.3,72.9,87,77,62,30.13,30.04,16,3,16,0.00
2013-6-26,91.1,83.5,76.7,77.2,74.5,69.3,93,75,51,30.09,30.02,16,3,16,0.14
2013-6-27,89.8,82.8,78.9,77.8,75.1,73.2,87,78,61,30.07,29.97,13,2,13,0.00
2013-6-28,90.5,82.2,75.2,77.9,74.5,71.2,94,78,61,30.01,29.88,10,2,13,0.28
2013-6-29,94.3,82.3,77.6,77.9,74.7,72.2,91,79,54,29.94,29.86,27,2,27,0.23
2013-6-30,90.0,81.5,76.5,78.5,74.6,72.7,92,80,59,29.96,29.87,16,4,28,0.49
2013-7-1,90.3,81.5,76.9,78.7,75.2,72.6,92,82,62,30.05,29.93,24,3,24,0.17
2013-7-2,88.0,80.6,76.2,79.4,75.8,72.9,95,86,72,30.13,29.99,18,2,18,0.45
2013-7-3,89.1,80.9,75.5,77.5,74.9,72.0,93,83,65,30.14,30.05,21,3,25,0.08
2013-7-4,89.5,82.4,74.7,78.2,75.0,69.8,93,79,64,30.16,30.07,21,4,21,0.05
2013-7-5,86.9,81.6,75.5,77.7,75.3,72.0,95,82,68,30.15,30.06,17,3,17,0.17
2013-7-6,89.0,83.2,79.2,77.6,74.8,72.2,85,76,61,30.13,30.03,15,4,17,0.13
2013-7-7,89.3,83.6,79.4,77.0,74.7,73.3,84,75,64,30.11,30.03,20,4,20,0.02
2013-7-8,90.0,83.5,78.0,74.8,73.0,71.1,83,71,56,30.16,30.08,14,3,15,0.00
2013-7-9,85.4,79.1,73.3,76.5,72.9,70.7,95,82,63,30.17,30.06,13,2,13,0.59
2013-7-10,86.3,78.9,73.9,76.7,73.8,70.1,95,85,69,30.10,30.01,14,1,14,0.12
2013-7-11,91.1,81.6,74.7,77.9,73.5,68.7,96,78,58,30.06,29.95,15,2,15,0.00
2013-7-12,88.5,78.7,73.5,77.4,73.9,69.3,95,86,55,30.00,29.92,19,1,22,0.67
2013-7-13,84.6,75.7,71.7,78.3,73.0,70.2,97,92,70,30.04,29.93,20,2,20,2.39
2013-7-14,87.0,78.1,71.7,76.5,73.1,69.3,97,86,64,30.10,30.00,16,3,16,0.87
2013-7-15,88.5,80.3,72.9,76.5,73.2,70.6,95,80,58,30.10,30.02,14,2,14,0.01
2013-7-16,84.2,78.9,73.7,74.7,72.2,69.4,94,80,64,30.15,30.05,24,4,24,0.03
2013-7-17,79.5,74.6,71.5,75.8,72.5,69.9,97,93,81,30.16,30.06,14,2,14,3.33
2013-7-18,85.2,75.1,72.3,77.9,72.7,70.1,98,93,71,30.15,30.06,17,2,17,0.74
2013-7-19,89.4,80.8,73.4,78.2,75.7,72.2,98,85,66,30.15,30.05,16,2,16,0.04
2013-7-20,88.2,82.4,78.5,78.7,76.1,69.8,93,82,63,30.12,30.04,18,3,18,0.00
2013-7-21,90.7,82.4,77.3,78.7,76.7,75.1,94,83,64,30.17,30.07,13,2,13,0.01
2013-7-22,91.5,83.7,77.1,76.8,75.2,71.1,94,77,56,30.16,30.08,13,2,14,0.00
2013-7-23,90.8,82.5,76.0,79.8,75.5,72.0,94,80,62,30.13,29.99,14,2,14,0.14
2013-7-24,95.1,85.6,76.9,78.4,74.7,69.1,94,72,46,30.05,29.93,16,3,16,0.00
2013-7-25,94.5,84.9,74.1,77.4,74.5,71.6,95,73,51,30.04,29.94,14,3,14,0.00
2013-7-26,95.2,84.1,77.2,78.2,75.8,72.5,91,78,55,30.05,29.94,20,3,20,0.06
2013-7-27,85.8,79.4,74.6,79.2,75.7,72.4,96,89,78,30.05,29.95,16,1,16,2.17
2013-7-28,92.5,80.5,74.7,77.5,74.9,70.4,97,84,55,30.09,29.97,16,1,16,1.95
2013-7-29,91.5,83.0,75.4,78.8,76.2,73.8,97,81,57,30.14,30.03,15,2,15,0.01
2013-7-30,90.8,83.2,76.7,80.0,76.8,73.9,95,82,65,30.18,30.08,17,2,17,0.59
2013-7-31,90.6,84.2,77.4,78.8,76.0,73.6,95,77,61,30.12,30.01,16,3,16,0.07
2013-8-1,90.6,84.0,78.0,76.5,74.4,72.5,85,73,60,30.06,29.95,15,3,16,0.00
2013-8-2,91.5,83.1,76.6,76.8,74.3,71.1,92,76,55,30.08,29.93,11,2,16,0.03
2013-8-3,88.8,79.2,74.8,78.7,75.3,71.8,95,88,66,30.15,30.03,13,1,13,0.21
2013-8-4,96.7,83.7,76.3,79.6,74.8,69.7,96,77,44,30.13,30.00,16,2,16,0.07
2013-8-5,94.2,82.6,76.7,79.7,75.5,72.3,94,80,57,30.06,29.96,12,2,12,0.01
2013-8-6,92.3,82.9,75.5,78.4,75.3,73.0,94,79,55,30.01,29.90,18,2,18,0.00
2013-8-7,89.8,82.5,76.8,78.8,75.5,73.8,93,80,64,30.00,29.92,15,2,15,0.30
2013-8-8,91.4,84.6,80.7,78.2,74.7,69.6,82,73,54,30.03,29.93,17,3,17,0.01
2013-8-9,87.4,81.4,74.7,77.8,74.0,70.5,94,79,64,30.07,29.96,19,3,19,0.22
2013-8-10,90.9,84.8,78.9,77.8,75.8,72.9,84,75,59,30.13,30.04,15,4,15,0.00
2013-8-11,91.4,85.3,80.9,78.8,76.3,74.6,85,75,62,30.15,30.07,15,3,16,0.00
2013-8-12,91.4,84.5,76.3,77.3,74.6,70.6,88,73,54,30.12,30.02,16,3,16,0.00
2013-8-13,92.0,84.4,77.6,78.1,75.5,71.4,96,76,55,30.06,29.97,13,2,13,0.13
2013-8-14,91.8,84.1,76.8,77.2,75.1,71.9,92,75,57,30.04,29.94,16,2,16,0.00
2013-8-15,89.8,80.9,77.1,78.4,76.6,74.7,94,87,67,30.08,29.97,11,1,11,0.25
2013-8-16,92.0,84.1,77.3,79.2,77.0,74.1,96,81,58,30.07,29.99,15,2,15,0.00
2013-8-17,92.4,85.3,80.7,80.9,77.2,72.2,90,77,54,30.09,30.01,16,2,16,0.03
2013-8-18,90.8,84.4,78.6,80.3,77.1,74.9,91,79,68,30.10,30.00,17,3,17,0.60
2013-8-19,91.5,84.0,77.5,78.9,76.4,73.6,96,79,59,30.09,29.97,17,3,17,0.12
2013-8-20,90.5,84.8,80.9,77.9,75.8,73.3,85,75,60,30.07,29.99,15,3,15,0.00
2013-8-21,90.8,82.4,76.6,81.7,77.2,74.1,95,85,65,30.08,30.00,19,2,19,0.62
2013-8-22,90.2,83.8,76.0,79.4,76.8,72.9,95,80,67,30.08,29.96,16,3,16,0.26
2013-8-23,90.8,83.2,77.7,79.2,76.1,74.2,92,80,63,30.03,29.94,13,2,13,0.00
2013-8-24,91.7,83.9,77.1,79.6,76.1,73.2,94,78,61,30.11,29.98,15,2,15,0.17
2013-8-25,88.6,82.0,77.6,77.0,75.6,73.7,94,82,66,30.16,30.03,15,3,15,0.01
2013-8-26,88.1,80.0,76.4,77.9,74.1,71.8,91,83,68,30.13,30.02,12,1,12,0.08
2013-8-27,84.8,79.4,75.1,76.2,73.2,69.6,95,82,66,30.07,29.98,10,1,10,0.15
2013-8-28,88.7,79.1,72.4,76.9,73.6,69.3,94,84,65,30.06,29.95,14,2,14,0.18
2013-8-29,92.5,82.6,75.0,77.8,75.1,72.3,96,79,55,30.03,29.94,12,2,12,0.01
2013-8-30,92.0,82.9,75.0,76.1,73.7,68.5,95,75,50,30.02,29.91,14,2,14,0.00
2013-8-31,91.5,79.5,73.1,77.4,73.6,67.5,95,83,58,30.00,29.93,18,1,18,0.42
2013-9-1,89.5,79.3,73.0,79.6,75.3,71.8,97,88,69,30.01,29.94,11,1,11,0.13
2013-9-2,92.2,79.1,74.7,79.1,74.9,72.4,97,88,58,30.06,29.96,18,1,18,0.24
2013-9-3,88.3,79.7,72.6,79.6,75.1,71.4,97,86,71,30.03,29.95,12,1,12,0.01
2013-9-4,89.2,81.9,76.9,81.4,77.1,74.7,96,86,70,30.08,29.95,19,2,19,0.58
2013-9-5,90.9,83.0,77.3,80.3,77.1,75.1,95,83,66,30.08,30.00,13,2,13,0.58
2013-9-6,92.2,84.2,77.4,78.9,75.9,72.8,94,77,58,30.05,29.93,14,2,14,0.07
2013-9-7,88.3,80.9,73.5,77.1,75.0,71.0,95,83,65,30.01,29.91,14,1,14,1.01
2013-9-8,89.5,79.4,73.5,78.0,74.3,69.8,95,85,60,29.96,29.87,13,1,13,0.84
2013-9-9,90.4,82.1,74.8,77.1,75.0,71.8,96,80,60,30.00,29.91,13,2,13,0.00
2013-9-10,89.3,80.7,75.5,79.8,75.2,72.0,94,84,64,30.05,29.96,20,2,20,0.88
2013-9-11,89.7,80.3,75.4,77.6,75.1,72.8,94,85,66,30.04,29.98,19,2,19,0.30
2013-9-12,85.3,80.1,75.2,78.4,75.6,72.7,96,87,67,30.03,29.90,6,1,7,0.01
2013-9-13,91.7,82.3,73.9,77.8,74.6,70.7,97,79,51,29.92,29.82,10,1,10,0.00
2013-9-14,92.1,83.2,74.6,77.3,74.9,70.8,96,78,52,29.98,29.84,11,2,11,0.00
2013-9-15,84.6,79.7,74.3,79.0,76.5,71.1,95,90,79,30.07,29.93,21,2,21,0.76
2013-9-16,83.3,80.7,75.4,77.7,75.6,71.3,93,85,74,30.07,29.97,9,3,14,0.16
2013-9-17,86.5,79.0,75.4,78.4,75.2,73.1,95,88,74,30.01,29.91,13,2,13,0.12
2013-9-18,88.0,80.3,75.7,77.5,75.1,72.9,96,85,68,30.02,29.92,13,2,13,0.02
2013-9-19,90.0,80.2,74.1,78.9,74.6,71.7,95,84,61,30.01,29.93,16,2,16,0.48
2013-9-20,88.7,80.3,73.6,74.8,72.2,68.3,95,78,55,30.00,29.90,18,3,18,0.14
2013-9-21,89.3,80.6,73.1,76.3,74.0,71.4,96,81,62,29.92,29.78,14,2,14,0.01
2013-9-22,92.7,82.0,74.9,78.3,75.7,72.8,97,82,54,29.89,29.77,17,2,17,0.58
2013-9-23,89.0,80.0,76.3,79.4,76.3,73.8,96,89,66,29.98,29.87,21,1,21,0.34
2013-9-24,93.5,83.0,76.5,80.4,76.3,72.0,96,81,55,29.98,29.88,19,3,19,0.04
2013-9-25,92.7,80.1,74.9,79.7,75.6,71.3,96,86,63,29.92,29.82,26,2,26,0.31
2013-9-26,93.3,81.6,75.3,80.7,76.8,73.6,97,86,60,29.88,29.81,22,3,22,0.49
2013-9-27,91.7,82.2,75.2,77.0,73.9,68.1,96,78,49,29.92,29.82,14,3,14,0.00
2013-9-28,89.3,80.4,73.3,75.7,73.1,70.4,95,79,56,29.97,29.88,20,2,20,0.64
2013-9-29,88.0,79.8,73.1,75.8,71.7,67.5,97,78,53,29.97,29.88,14,2,14,0.71
2013-9-30,89.2,80.7,72.4,74.9,71.9,69.2,93,76,58,30.01,29.90,14,2,14,0.00
2013-10-1,89.0,81.8,74.8,75.8,73.3,70.7,91,76,60,30.02,29.95,16,4,18,0.00
2013-10-2,82.1,78.2,74.2,78.1,75.1,72.2,96,91,82,30.06,29.96,16,2,16,3.76
2013-10-3,85.0,79.2,73.4,77.6,74.3,71.9,97,85,71,30.06,29.95,12,2,12,0.00
2013-10-4,89.0,79.4,72.1,75.8,71.8,69.0,96,79,60,30.06,29.99,14,2,14,0.00
2013-10-5,89.3,80.6,71.8,74.2,71.3,65.8,92,75,48,30.03,29.93,13,2,13,0.00
2013-10-6,90.2,80.7,72.4,75.4,72.0,68.0,97,76,54,29.97,29.87,10,1,10,0.02
2013-10-7,94.0,80.4,72.5,75.2,72.4,70.0,95,78,47,29.91,29.82,20,3,20,0.02
2013-10-8,90.8,82.5,75.1,79.7,74.9,71.6,95,79,60,29.95,29.86,13,3,13,0.02
2013-10-9,89.3,78.3,69.4,77.9,73.1,67.9,96,84,67,30.00,29.92,14,2,14,0.07
2013-10-10,89.3,79.9,72.9,74.1,71.8,68.6,95,78,55,30.01,29.94,18,3,18,0.00
2013-10-11,88.0,78.2,69.0,72.1,68.7,66.8,95,74,54,30.02,29.94,16,2,16,0.00
2013-10-12,86.5,76.7,66.5,71.1,67.4,64.3,95,74,52,30.03,29.95,11,1,11,0.00
2013-10-13,86.5,77.6,70.5,73.3,67.7,64.3,95,73,52,30.06,29.97,16,2,16,0.00
2013-10-14,87.5,77.7,68.9,70.5,67.7,63.8,93,73,49,30.02,29.91,15,2,15,0.00
2013-10-15,88.3,78.1,69.5,73.2,69.4,66.7,96,76,53,29.96,29.87,15,2,15,0.00
2013-10-16,86.1,77.9,70.1,73.3,70.2,67.9,94,78,62,29.96,29.89,14,2,14,0.00
2013-10-17,88.8,79.0,70.6,73.4,70.9,68.8,96,78,56,29.98,29.90,11,2,11,0.00
2013-10-18,88.8,79.4,70.5,73.9,71.4,68.6,96,78,57,29.99,29.91,11,2,11,0.00
2013-10-19,89.0,81.3,72.3,75.4,73.3,69.9,94,78,61,29.97,29.88,15,2,15,0.00
2013-10-20,92.7,80.8,75.8,78.2,75.3,70.1,96,84,50,29.97,29.88,13,1,13,0.91
2013-10-21,90.5,82.2,76.5,79.0,75.3,73.5,96,81,59,30.01,29.91,12,2,12,0.00
2013-10-22,89.7,81.3,73.6,77.4,75.0,72.0,96,82,61,29.98,29.85,14,2,14,0.00
2013-10-23,91.0,80.3,75.2,79.1,74.8,70.0,96,84,60,29.96,29.83,13,2,13,0.57
2013-10-24,81.7,76.6,72.5,70.8,67.5,63.8,82,74,64,30.09,29.93,15,3,15,0.01
2013-10-25,83.2,76.3,70.3,68.8,65.4,62.6,83,70,55,30.16,30.06,15,4,21,0.00
2013-10-26,84.0,76.0,68.0,67.7,63.9,60.8,88,67,51,30.15,30.05,15,3,15,0.00
2013-10-27,83.5,74.4,66.1,66.8,63.9,60.7,85,71,51,30.10,30.02,15,2,15,0.00
2013-10-28,85.0,76.2,65.8,69.2,65.0,60.8,93,70,48,30.15,30.05,14,3,14,0.00
2013-10-29,85.2,76.2,66.0,72.0,67.1,63.7,94,75,59,30.17,30.09,23,4,23,0.00
2013-10-30,84.7,79.0,73.7,69.8,67.5,64.5,79,68,54,30.18,30.08,21,5,21,0.00
2013-10-31,86.8,79.1,70.5,73.3,70.0,65.8,88,74,58,30.12,30.00,14,2,14,0.00
2013-11-1,88.3,80.2,72.7,75.4,72.5,70.0,93,78,60,30.01,29.90,14,2,14,0.00
2013-11-2,90.8,79.1,68.8,74.1,70.1,66.6,97,76,47,29.95,29.82,14,2,15,0.00
2013-11-3,84.3,75.0,67.8,67.0,63.6,60.5,84,68,52,30.02,29.90,21,4,21,0.00
2013-11-4,83.7,77.5,74.4,69.0,64.7,56.7,79,65,45,30.07,29.99,29,8,29,0.02
2013-11-5,83.3,78.7,73.4,72.5,68.9,64.7,90,72,62,30.08,30.00,27,8,27,0.12
2013-11-6,84.2,78.3,71.4,73.3,70.7,68.6,91,78,66,30.06,29.99,21,5,21,0.03
2013-11-7,89.7,76.9,68.2,73.0,69.8,66.4,95,80,53,30.02,29.92,11,2,11,0.00
2013-11-8,85.2,75.9,70.2,73.9,70.9,67.2,95,85,60,30.04,29.94,23,4,23,1.05
2013-11-9,82.7,76.9,74.3,74.3,72.6,71.5,94,87,75,30.11,30.00,24,6,24,0.59
2013-11-10,85.1,78.4,74.3,73.3,71.1,68.8,95,79,62,30.12,30.04,15,4,17,0.62
2013-11-11,84.7,77.3,70.8,73.1,69.4,67.3,91,77,65,30.11,30.05,13,4,17,0.00
2013-11-12,85.3,76.9,69.2,72.3,68.9,66.1,93,77,63,30.08,29.97,14,2,14,0.00
2013-11-13,78.9,72.5,69.5,69.6,65.0,59.7,90,78,62,30.20,30.00,25,5,25,0.04
2013-11-14,78.7,73.4,69.9,64.7,60.6,56.9,73,64,57,30.24,30.13,23,7,23,0.00
2013-11-15,82.1,76.2,73.3,71.7,67.5,61.7,90,75,59,30.14,30.02,18,3,18,0.09
2013-11-16,80.2,77.6,75.2,72.7,69.4,66.8,90,76,67,30.10,30.01,15,3,15,0.02
2013-11-17,85.5,78.5,72.6,73.7,70.4,68.7,90,77,64,30.08,30.01,14,2,14,0.00
2013-11-18,84.0,76.4,69.2,73.6,70.4,67.7,96,82,66,30.03,29.92,9,1,9,0.00
2013-11-19,87.3,76.8,71.2,74.8,71.8,69.0,94,85,60,29.95,29.86,12,2,12,0.01
2013-11-20,84.7,75.5,69.7,75.2,71.9,68.5,97,89,71,30.06,29.93,8,1,9,0.39
2013-11-21,84.7,75.9,71.0,75.0,71.9,69.6,97,88,62,30.14,30.05,17,3,17,2.46
2013-11-22,82.1,76.7,72.4,73.1,71.5,70.3,96,85,73,30.15,30.06,17,6,22,0.44
2013-11-23,81.0,75.8,70.6,73.0,70.9,65.9,93,85,76,30.08,29.98,21,3,21,0.18
2013-11-24,83.0,73.3,67.1,71.7,67.6,64.5,97,83,61,30.14,29.99,24,3,24,0.46
2013-11-25,77.9,73.5,71.5,69.7,66.0,61.5,90,77,70,30.19,30.04,25,7,25,0.08
2013-11-26,82.8,77.7,72.5,75.7,72.7,69.0,92,85,75,30.05,29.84,21,5,21,0.17
2013-11-27,80.5,72.2,59.6,75.2,64.8,53.0,96,79,52,30.12,29.80,21,5,21,1.10
2013-11-28,74.2,63.1,49.8,61.7,54.0,46.1,88,73,58,30.23,30.12,19,4,19,0.00
2013-11-29,77.5,69.2,59.8,64.0,60.2,57.1,92,74,58,30.26,30.17,21,5,21,0.00
2013-11-30,81.0,69.8,61.1,70.2,63.9,59.1,96,82,65,30.19,30.09,14,4,24,0.43
2013-12-1,77.1,68.5,61.5,70.5,65.7,60.0,96,91,74,30.09,29.94,13,1,13,0.44
2013-12-2,75.7,68.3,60.1,67.3,63.7,58.1,97,86,60,29.94,29.82,13,2,13,0.00
2013-12-3,80.2,69.4,58.4,65.7,62.5,56.9,98,81,53,30.00,29.90,12,1,12,0.01
2013-12-4,82.5,72.1,63.5,69.7,65.7,62.3,97,82,58,30.09,29.98,13,1,13,0.00
2013-12-5,82.8,74.1,65.2,71.8,68.5,63.7,96,84,67,30.16,30.07,14,2,14,0.00
2013-12-6,82.8,76.6,69.6,71.5,69.0,65.4,91,78,59,30.18,30.07,15,3,15,0.01
2013-12-7,83.7,74.8,65.9,71.4,68.4,64.1,96,81,63,30.20,30.12,15,2,15,0.01
2013-12-8,82.7,76.9,71.6,71.5,69.5,65.9,92,78,64,30.20,30.11,18,3,18,0.01
2013-12-9,83.0,77.9,74.4,70.7,69.0,64.9,84,75,57,30.19,30.10,16,2,16,0.00
2013-12-10,84.5,76.8,69.3,72.9,70.6,67.1,94,82,65,30.15,30.07,12,2,12,0.00
2013-12-11,84.5,76.0,69.2,73.7,71.0,68.0,97,85,67,30.18,30.11,13,2,13,0.00
2013-12-12,82.7,72.3,65.6,72.9,66.9,59.8,96,84,66,30.23,30.13,16,2,16,0.00
2013-12-13,78.7,72.5,64.2,69.9,65.4,59.5,95,79,68,30.19,30.09,19,4,19,0.43
2013-12-14,82.2,76.8,73.7,72.4,70.8,68.3,89,82,71,30.11,30.00,18,3,18,0.03
2013-12-15,87.7,77.9,72.6,75.2,72.3,70.2,94,84,61,30.07,29.94,14,4,18,0.00
2013-12-16,74.0,68.8,62.7,70.4,62.1,59.1,93,80,68,30.17,30.04,13,3,13,0.00
2013-12-17,78.5,67.3,59.4,66.6,60.6,57.4,94,80,59,30.19,30.09,16,2,16,0.00
2013-12-18,77.9,66.7,58.4,61.4,58.4,56.4,96,76,54,30.24,30.15,10,2,18,0.00
2013-12-19,78.8,68.8,57.2,64.1,60.0,55.5,95,75,56,30.24,30.15,20,2,20,0.00
2013-12-20,82.0,76.3,69.5,70.2,68.2,64.0,85,76,62,30.19,30.11,16,3,16,0.00
2013-12-21,82.5,77.8,75.1,73.0,71.5,70.0,87,81,73,30.16,30.07,17,4,17,0.00
2013-12-22,83.3,78.5,76.0,73.5,71.7,70.3,89,80,69,30.17,30.09,18,4,18,0.01
2013-12-23,84.2,77.4,69.7,73.9,71.5,67.9,94,83,67,30.19,30.12,17,3,17,0.01
2013-12-24,86.4,72.6,65.6,73.4,67.1,61.3,97,84,56,30.19,30.08,12,2,15,0.00
2013-12-25,77.4,73.7,68.3,68.2,66.4,62.6,90,78,70,30.18,30.09,26,7,26,0.07
2013-12-26,76.6,73.2,70.6,71.5,69.9,67.9,95,89,82,30.17,30.07,12,2,14,0.49
2013-12-27,80.7,74.3,67.5,72.1,69.8,65.8,96,86,70,30.20,30.09,17,4,17,0.04
2013-12-28,80.3,76.1,72.2,72.7,71.3,69.3,95,85,77,30.18,30.03,13,3,15,0.49
2013-12-29,80.7,77.0,72.6,74.8,72.9,71.1,95,87,80,30.06,29.94,18,4,18,0.00
2013-12-30,82.0,74.5,70.7,72.8,70.6,66.7,97,88,72,30.14,29.99,10,2,10,0.00
2013-12-31,78.4,72.6,67.0,70.0,65.6,63.0,93,79,66,30.23,30.11,19,5,23,0.02
2014-1-1,81.2,75.3,71.6,74.5,70.8,65.5,95,86,69,30.19,30.05,15,2,15,0.69
2014-1-2,85.3,75.1,65.3,72.5,68.9,64.3,98,83,59,30.06,29.89,18,3,18,0.00